This is the latest recevied weather packets stored in our database for station/object ED1ZAI-13. If no packets are shown the sender has not sent any weather packets the latest 10 day(s).
| Time | Temp. | Humidity | Pressure | Rain* | Wind** | Luminosity | Snow |
|---|---|---|---|---|---|---|---|
| 1777922773 | 11.11° C | 74% | 1010.9 hPa | 0 mm | - | - | - |
| 1777922172 | 11.11° C | 73% | 1010.8 hPa | 0 mm | - | - | - |
| 1777921572 | 11.67° C | 71% | 1010.8 hPa | 0 mm | - | - | - |
| 1777920974 | 11.67° C | 68% | 1010.8 hPa | 0 mm | - | - | - |
| 1777920374 | 13.33° C | 62% | 1010.6 hPa | 0 mm | - | - | - |
| 1777919773 | 13.33° C | 65% | 1010.6 hPa | 0 mm | - | - | - |
| 1777919173 | 13.33° C | 66% | 1010.5 hPa | 0 mm | - | - | - |
| 1777918573 | 12.22° C | 70% | 1010.5 hPa | 0 mm | - | - | - |
| 1777917973 | 11.67° C | 71% | 1010.6 hPa | 0 mm | - | - | - |
| 1777917372 | 10.56° C | 74% | 1010.6 hPa | 0 mm | - | - | - |
| 1777916774 | 11.67° C | 71% | 1010.6 hPa | 0 mm | - | - | - |
| 1777916174 | 11.11° C | 71% | 1010.7 hPa | 0 mm | - | - | - |
| 1777915572 | 11.11° C | 75% | 1010.7 hPa | 0 mm | - | - | - |
| 1777914972 | 11.67° C | 73% | 1010.6 hPa | 0 mm | - | - | - |
| 1777914374 | 11.11° C | 74% | 1010.7 hPa | 0 mm | - | - | - |
| 1777913774 | 11.11° C | 72% | 1010.6 hPa | 0 mm | - | - | - |
| 1777913173 | 10.56° C | 72% | 1010.6 hPa | 0 mm | - | - | - |
| 1777912573 | 11.11° C | 68% | 1010.6 hPa | 0 mm | - | - | - |
| 1777911973 | 11.11° C | 67% | 1010.5 hPa | 0 mm | - | - | - |
| 1777911372 | 11.67° C | 66% | 1010.3 hPa | 0 mm | - | - | - |
| 1777910772 | 13.33° C | 58% | 1009.6 hPa | 0 mm | - | - | - |
| 1777910172 | 13.89° C | 51% | 1009.5 hPa | 0 mm | - | - | - |
| 1777909572 | 16.11° C | 48% | 1009.4 hPa | 0 mm | - | - | - |
| 1777908971 | 17.22° C | 47% | 1009.4 hPa | 0 mm | - | - | - |
| 1777908373 | 15.56° C | 49% | 1009.5 hPa | 0 mm | - | - | - |
* Rain latest hour (hover to see other rain measurements)
** Current wind speed in m/s (hover to see current wind gust speed)